createdAt,value
2023-04-28T00:01:14.520Z,6.00
2023-04-28T00:03:43.430Z,7.10
2023-04-28T00:06:12.479Z,9.20
2023-04-28T00:08:42.517Z,7.60
2023-04-28T00:11:11.672Z,8.67
2023-04-28T00:13:40.360Z,13.13
2023-04-28T00:16:09.097Z,7.27
2023-04-28T00:18:37.634Z,5.50
2023-04-28T00:21:06.534Z,7.57
2023-04-28T00:23:35.279Z,10.10
2023-04-28T00:26:05.238Z,7.70
2023-04-28T00:28:34.925Z,4.93
2023-04-28T00:31:03.985Z,9.80
2023-04-28T00:33:32.487Z,11.50
2023-04-28T00:36:01.852Z,5.23
2023-04-28T00:38:30.477Z,9.67
2023-04-28T00:40:59.116Z,6.50
2023-04-28T00:43:29.077Z,6.10
2023-04-28T00:45:57.846Z,3.57
2023-04-28T00:48:27.674Z,3.83
2023-04-28T00:50:56.732Z,4.23
2023-04-28T00:53:25.523Z,6.80
2023-04-28T00:55:57.148Z,6.27
2023-04-28T00:58:28.712Z,6.03
2023-04-28T01:01:04.398Z,5.90
2023-04-28T01:03:35.388Z,5.83
2023-04-28T01:06:05.122Z,5.70
2023-04-28T01:08:35.417Z,6.00
2023-04-28T01:11:07.065Z,7.10
2023-04-28T01:14:00.055Z,4.90
2023-04-28T01:16:32.646Z,6.90
2023-04-28T01:19:02.418Z,7.40
2023-04-28T01:21:34.697Z,6.40
2023-04-28T01:24:23.253Z,6.63
2023-04-28T01:26:52.324Z,6.63
2023-04-28T01:29:20.887Z,8.63
2023-04-28T01:31:49.550Z,4.83
2023-04-28T01:34:19.140Z,4.27
2023-04-28T01:36:47.692Z,4.20
2023-04-28T01:39:16.708Z,5.23
2023-04-28T01:41:46.573Z,3.80
2023-04-28T01:44:15.298Z,4.30
2023-04-28T01:46:44.032Z,4.87
2023-04-28T01:49:12.491Z,3.20
2023-04-28T01:51:42.866Z,4.60
2023-04-28T01:54:11.904Z,5.20
2023-04-28T01:56:41.572Z,6.53
2023-04-28T01:59:11.671Z,4.83
2023-04-28T02:01:40.159Z,10.63
2023-04-28T02:04:08.769Z,4.10
2023-04-28T02:06:39.149Z,4.30
2023-04-28T02:09:07.677Z,4.03
2023-04-28T02:11:36.233Z,6.27
2023-04-28T02:14:04.860Z,4.03
2023-04-28T02:16:35.047Z,5.97
2023-04-28T02:19:03.580Z,4.80
2023-04-28T02:21:32.865Z,3.23
2023-04-28T02:24:01.472Z,3.37
2023-04-28T02:26:34.473Z,6.63
2023-04-28T02:29:04.256Z,4.40
2023-04-28T02:31:35.732Z,5.53
2023-04-28T02:34:04.315Z,5.90
2023-04-28T02:36:33.341Z,3.83
2023-04-28T02:39:02.189Z,4.13
2023-04-28T02:41:31.723Z,7.27
2023-04-28T02:44:00.340Z,7.93
2023-04-28T02:46:28.905Z,4.23
2023-04-28T02:48:58.782Z,6.67
2023-04-28T02:51:27.310Z,6.63
2023-04-28T02:53:55.894Z,13.23
2023-04-28T02:56:25.431Z,6.73
2023-04-28T02:58:54.355Z,7.17
2023-04-28T03:01:22.915Z,5.43
2023-04-28T03:03:51.658Z,5.57
2023-04-28T03:06:21.703Z,6.50
2023-04-28T03:08:50.901Z,5.73
2023-04-28T03:11:19.428Z,4.70
2023-04-28T03:13:48.011Z,7.73
2023-04-28T03:16:16.626Z,6.17
2023-04-28T03:18:45.150Z,7.13
2023-04-28T03:21:13.694Z,4.70
2023-04-28T03:23:43.714Z,4.97
2023-04-28T03:26:12.422Z,6.63
2023-04-28T03:28:41.156Z,3.93
2023-04-28T03:31:09.726Z,5.70
2023-04-28T03:33:38.274Z,9.80
2023-04-28T03:36:07.585Z,4.37
2023-04-28T03:38:36.170Z,4.80
2023-04-28T03:41:06.608Z,9.00
2023-04-28T03:43:35.597Z,5.97
2023-04-28T03:46:19.354Z,6.97
2023-04-28T03:48:48.396Z,5.63
2023-04-28T03:51:17.017Z,4.23
2023-04-28T03:53:45.679Z,11.77
2023-04-28T03:56:16.061Z,8.93
2023-04-28T03:58:44.591Z,7.20
2023-04-28T04:01:13.273Z,6.73
2023-04-28T04:03:42.277Z,5.80
2023-04-28T04:06:11.116Z,8.10
2023-04-28T04:08:39.664Z,4.70
2023-04-28T04:11:08.170Z,9.67
2023-04-28T04:13:38.792Z,5.87
2023-04-28T04:16:11.488Z,4.40
2023-04-28T04:18:40.055Z,10.57
2023-04-28T04:21:18.251Z,5.53
2023-04-28T04:23:47.467Z,6.30
2023-04-28T04:26:16.165Z,4.97
2023-04-28T04:28:46.271Z,6.23
2023-04-28T04:31:15.259Z,4.67
2023-04-28T04:33:45.118Z,6.37
2023-04-28T04:36:13.808Z,8.60
2023-04-28T04:38:42.362Z,4.17
2023-04-28T04:41:17.070Z,5.07
2023-04-28T04:43:47.557Z,5.63
2023-04-28T04:46:16.440Z,5.77
2023-04-28T04:48:45.295Z,6.00
2023-04-28T04:51:14.107Z,7.13
2023-04-28T04:53:43.668Z,5.20
2023-04-28T04:56:12.310Z,5.40
2023-04-28T04:58:44.258Z,6.03
2023-04-28T05:01:28.848Z,8.00
2023-04-28T05:03:58.070Z,4.87
2023-04-28T05:06:27.071Z,7.33
2023-04-28T05:08:56.551Z,6.80
2023-04-28T05:11:26.082Z,5.37
2023-04-28T05:13:54.652Z,7.07
2023-04-28T05:16:23.428Z,8.47
2023-04-28T05:19:04.964Z,6.33
2023-04-28T05:21:33.712Z,6.47
2023-04-28T05:24:02.281Z,5.53
2023-04-28T05:26:32.549Z,9.07
2023-04-28T05:29:07.330Z,6.93
2023-04-28T05:31:35.959Z,6.63
2023-04-28T05:34:06.372Z,7.97
2023-04-28T05:36:35.056Z,8.70
2023-04-28T05:39:03.885Z,8.97
2023-04-28T05:41:32.398Z,9.10
2023-04-28T05:44:01.522Z,11.00
2023-04-28T05:46:31.359Z,8.83
2023-04-28T05:49:03.144Z,7.80
2023-04-28T05:51:38.711Z,16.07
2023-04-28T05:54:07.443Z,10.63
2023-04-28T05:56:42.467Z,11.03
2023-04-28T05:59:11.246Z,9.97
2023-04-28T06:01:39.912Z,16.27
2023-04-28T06:04:08.674Z,16.00
2023-04-28T06:06:39.603Z,11.43
2023-04-28T06:09:09.041Z,14.43
2023-04-28T06:11:37.607Z,8.93
2023-04-28T06:14:06.648Z,10.43
2023-04-28T06:16:35.450Z,11.87
2023-04-28T06:19:05.032Z,10.73
2023-04-28T06:21:33.728Z,13.17
2023-04-28T06:24:03.735Z,11.03
2023-04-28T06:26:32.788Z,12.10
2023-04-28T06:29:02.490Z,11.57
2023-04-28T06:31:31.846Z,10.73
2023-04-28T06:34:00.547Z,8.90
2023-04-28T06:36:29.640Z,11.07
2023-04-28T06:38:58.869Z,13.50
2023-04-28T06:41:29.181Z,15.03
2023-04-28T06:43:58.677Z,13.77
2023-04-28T06:46:31.725Z,12.47
2023-04-28T06:49:00.299Z,12.77
2023-04-28T06:51:29.829Z,10.17
2023-04-28T06:53:58.404Z,13.20
2023-04-28T06:56:28.453Z,13.03
2023-04-28T06:58:59.001Z,10.37
2023-04-28T07:01:27.575Z,11.47
2023-04-28T07:03:56.283Z,13.70
2023-04-28T07:06:24.946Z,15.93
2023-04-28T07:08:53.435Z,12.00
2023-04-28T07:11:23.389Z,12.50
2023-04-28T07:13:53.233Z,17.70
2023-04-28T07:16:22.637Z,18.43
2023-04-28T07:18:51.231Z,10.80
2023-04-28T07:21:20.062Z,22.13
2023-04-28T07:23:49.014Z,13.50
2023-04-28T07:26:17.539Z,15.43
2023-04-28T07:28:46.306Z,15.20
2023-04-28T07:31:16.190Z,20.40
2023-04-28T07:33:44.741Z,13.97
2023-04-28T07:36:13.358Z,13.77
2023-04-28T07:38:42.019Z,10.57
2023-04-28T07:41:11.341Z,12.23
2023-04-28T07:43:40.927Z,12.27
2023-04-28T07:46:09.927Z,19.50
2023-04-28T07:48:40.201Z,15.97
2023-04-28T07:51:08.795Z,14.10
2023-04-28T07:53:37.754Z,12.03
2023-04-28T07:56:06.641Z,12.87
2023-04-28T07:58:35.263Z,15.50
2023-04-28T08:01:03.823Z,13.50
2023-04-28T08:03:32.731Z,11.57
2023-04-28T08:06:03.073Z,10.53
2023-04-28T08:08:32.330Z,13.77
2023-04-28T08:11:00.862Z,12.67
2023-04-28T08:13:29.517Z,13.90
2023-04-28T08:16:00.310Z,15.23
2023-04-28T08:18:29.425Z,16.57
2023-04-28T08:20:57.971Z,13.27
2023-04-28T08:23:28.348Z,16.03
2023-04-28T08:25:56.954Z,12.77
2023-04-28T08:28:26.123Z,15.33
2023-04-28T08:30:55.541Z,17.63
2023-04-28T08:33:24.374Z,18.03
2023-04-28T08:35:52.945Z,18.07
2023-04-28T08:38:24.111Z,18.97
2023-04-28T08:40:54.221Z,18.10
2023-04-28T08:43:22.854Z,22.60
2023-04-28T08:45:51.466Z,21.63
2023-04-28T08:48:22.152Z,17.67
2023-04-28T08:50:52.655Z,20.67
2023-04-28T08:53:25.501Z,23.80
2023-04-28T08:55:57.561Z,22.17
2023-04-28T08:58:26.916Z,19.10
2023-04-28T09:00:55.752Z,20.70
2023-04-28T09:03:25.526Z,20.23
2023-04-28T09:05:54.225Z,19.37
2023-04-28T09:08:22.755Z,20.30
2023-04-28T09:11:09.362Z,20.53
2023-04-28T09:13:38.154Z,19.47
2023-04-28T09:16:07.515Z,23.70
2023-04-28T09:18:36.156Z,18.53
2023-04-28T09:21:06.447Z,20.30
2023-04-28T09:23:36.208Z,25.03
2023-04-28T09:26:06.353Z,21.87
2023-04-28T09:28:37.180Z,16.87
2023-04-28T09:31:06.051Z,19.47
2023-04-28T09:33:34.805Z,17.70
2023-04-28T09:36:03.467Z,29.47
2023-04-28T09:38:32.111Z,22.00
2023-04-28T09:41:02.156Z,23.30
2023-04-28T09:43:32.354Z,19.63
2023-04-28T09:46:03.408Z,27.33
2023-04-28T09:48:33.396Z,22.57
2023-04-28T09:51:04.147Z,21.77
2023-04-28T09:53:33.532Z,18.17
2023-04-28T09:56:03.451Z,20.27
2023-04-28T09:58:33.025Z,24.50
2023-04-28T10:01:03.111Z,17.07
2023-04-28T10:03:32.922Z,17.47
2023-04-28T10:06:03.047Z,20.13
2023-04-28T10:08:31.809Z,18.03
2023-04-28T10:11:00.744Z,16.57
2023-04-28T10:13:29.433Z,14.13
2023-04-28T10:15:58.609Z,15.43
2023-04-28T10:18:29.835Z,14.20
2023-04-28T10:21:03.171Z,15.70
2023-04-28T10:23:58.914Z,17.27
2023-04-28T10:26:55.679Z,15.53
2023-04-28T10:29:25.834Z,11.00
2023-04-28T10:32:19.946Z,9.57
2023-04-28T10:34:50.019Z,15.40
2023-04-28T10:37:19.554Z,11.97
2023-04-28T10:40:32.963Z,13.77
2023-04-28T10:43:01.676Z,13.80
2023-04-28T10:46:07.160Z,20.93
2023-04-28T10:48:58.008Z,11.43
2023-04-28T10:51:33.115Z,14.57
2023-04-28T10:54:28.192Z,17.63
2023-04-28T10:57:22.942Z,12.10
2023-04-28T10:59:52.721Z,15.70
2023-04-28T11:02:44.238Z,14.67
2023-04-28T11:05:20.600Z,14.87
2023-04-28T11:08:29.019Z,16.93
2023-04-28T11:11:15.670Z,21.23
2023-04-28T11:13:46.909Z,15.13
2023-04-28T11:16:21.197Z,15.50
2023-04-28T11:19:04.500Z,19.97
2023-04-28T11:21:34.505Z,17.07
2023-04-28T11:24:11.069Z,18.10
2023-04-28T11:26:41.846Z,20.17
2023-04-28T11:29:10.858Z,18.73
2023-04-28T11:31:39.910Z,17.80
2023-04-28T11:34:14.330Z,22.00
2023-04-28T11:36:43.070Z,21.10
2023-04-28T11:39:13.671Z,16.70
2023-04-28T11:41:44.912Z,12.33
2023-04-28T11:44:16.563Z,11.20
2023-04-28T11:46:51.502Z,9.80
2023-04-28T11:49:21.216Z,10.77
2023-04-28T11:51:50.271Z,11.57
2023-04-28T11:54:23.576Z,9.77
2023-04-28T11:56:53.939Z,12.87
2023-04-28T11:59:26.049Z,12.73
2023-04-28T12:01:57.270Z,16.30
2023-04-28T12:04:30.584Z,12.70
2023-04-28T12:07:07.502Z,9.33
2023-04-28T12:09:36.415Z,9.53
2023-04-28T12:12:07.525Z,14.43
2023-04-28T12:14:57.314Z,12.23
2023-04-28T12:17:27.046Z,11.33
2023-04-28T12:19:56.073Z,10.17
2023-04-28T12:22:25.105Z,9.27
2023-04-28T12:25:07.998Z,13.00
2023-04-28T12:27:40.514Z,7.30
2023-04-28T12:30:28.742Z,8.03
2023-04-28T12:32:58.158Z,7.43
2023-04-28T12:35:27.646Z,6.53
2023-04-28T12:37:58.570Z,6.70
2023-04-28T12:40:27.435Z,8.13
2023-04-28T12:42:57.785Z,4.53
2023-04-28T12:45:26.341Z,8.00
2023-04-28T12:47:55.407Z,4.70
2023-04-28T12:50:24.304Z,2.97
2023-04-28T12:52:52.911Z,3.23
2023-04-28T12:55:21.506Z,3.37
2023-04-28T12:57:50.059Z,3.20
2023-04-28T13:00:23.311Z,4.07
2023-04-28T13:02:53.151Z,4.20
2023-04-28T13:05:22.136Z,3.50
2023-04-28T13:07:50.869Z,3.30
2023-04-28T13:10:21.342Z,2.37
2023-04-28T13:12:49.948Z,3.27
2023-04-28T13:15:19.937Z,2.83
2023-04-28T13:17:49.434Z,3.90
2023-04-28T13:20:18.076Z,4.03
2023-04-28T13:22:46.609Z,3.60
2023-04-28T13:25:15.266Z,6.47
2023-04-28T13:27:43.814Z,5.10
2023-04-28T13:30:13.854Z,6.37
2023-04-28T13:32:43.828Z,7.47
2023-04-28T13:35:12.404Z,5.10
2023-04-28T13:37:45.677Z,5.20
2023-04-28T13:40:14.571Z,5.70
2023-04-28T13:42:43.080Z,4.70
2023-04-28T13:45:12.363Z,4.73
2023-04-28T13:47:41.345Z,8.37
2023-04-28T13:50:11.679Z,10.07
2023-04-28T13:52:40.387Z,6.60
2023-04-28T13:55:09.734Z,5.80
2023-04-28T13:57:38.290Z,6.93
2023-04-28T14:00:10.049Z,4.23
2023-04-28T14:02:39.543Z,4.33
2023-04-28T14:05:09.121Z,4.77
2023-04-28T14:07:39.019Z,4.00
2023-04-28T14:10:08.257Z,4.87
2023-04-28T14:12:37.404Z,4.53
2023-04-28T14:15:06.980Z,6.57
2023-04-28T14:17:36.606Z,3.30
2023-04-28T14:20:05.837Z,5.73
2023-04-28T14:22:34.429Z,6.20
2023-04-28T14:25:04.471Z,4.27
2023-04-28T14:27:33.067Z,9.60
2023-04-28T14:30:02.111Z,6.13
2023-04-28T14:32:30.659Z,5.27
2023-04-28T14:34:59.243Z,10.53
2023-04-28T14:37:27.972Z,6.50
2023-04-28T14:39:56.578Z,7.10
2023-04-28T14:42:30.653Z,13.13
2023-04-28T14:44:59.235Z,11.37
2023-04-28T14:47:27.878Z,6.97
2023-04-28T14:49:56.463Z,9.03
2023-04-28T14:52:27.172Z,12.07
2023-04-28T14:54:56.800Z,12.90
2023-04-28T14:57:27.365Z,10.10
2023-04-28T14:59:55.972Z,9.57
2023-04-28T15:02:28.376Z,9.60
2023-04-28T15:04:58.142Z,12.50
2023-04-28T15:07:31.067Z,11.17
2023-04-28T15:09:59.949Z,13.97
2023-04-28T15:12:31.909Z,11.03
2023-04-28T15:15:00.468Z,10.53
2023-04-28T15:17:29.190Z,12.20
2023-04-28T15:19:57.763Z,9.83
2023-04-28T15:22:26.355Z,13.67
2023-04-28T15:24:55.820Z,13.20
2023-04-28T15:27:24.448Z,16.37
2023-04-28T15:29:54.416Z,12.50
2023-04-28T15:32:23.510Z,14.57
2023-04-28T15:34:52.918Z,12.93
2023-04-28T15:37:43.034Z,12.47
2023-04-28T15:40:14.002Z,11.30
2023-04-28T15:42:45.013Z,9.87
2023-04-28T15:45:15.670Z,15.30
2023-04-28T15:47:45.247Z,11.00
2023-04-28T15:50:14.260Z,9.10
2023-04-28T15:52:46.014Z,8.97
2023-04-28T15:55:15.310Z,12.33
2023-04-28T15:57:44.701Z,10.93
2023-04-28T16:00:16.397Z,9.37
2023-04-28T16:02:45.404Z,8.53
2023-04-28T16:05:14.842Z,10.57
2023-04-28T16:07:44.262Z,16.90
2023-04-28T16:10:14.514Z,11.37
2023-04-28T16:12:43.878Z,11.77
2023-04-28T16:15:14.506Z,15.17
2023-04-28T16:17:44.258Z,13.23
2023-04-28T16:20:13.310Z,14.63
2023-04-28T16:22:42.495Z,11.83
2023-04-28T16:25:11.434Z,16.63
2023-04-28T16:27:41.419Z,14.73
2023-04-28T16:30:10.853Z,16.20
2023-04-28T16:32:41.029Z,13.63
2023-04-28T16:35:14.848Z,20.53
2023-04-28T16:37:44.465Z,17.50
2023-04-28T16:40:14.014Z,20.13
2023-04-28T16:42:43.505Z,18.53
2023-04-28T16:45:13.094Z,16.10
2023-04-28T16:47:43.850Z,23.00
2023-04-28T16:50:14.686Z,19.60
2023-04-28T16:52:43.462Z,20.83
2023-04-28T16:55:12.084Z,16.90
2023-04-28T16:57:41.399Z,16.40
2023-04-28T17:00:11.091Z,17.77
2023-04-28T17:02:40.010Z,16.43
2023-04-28T17:05:11.162Z,11.73
2023-04-28T17:07:39.753Z,19.30
2023-04-28T17:10:09.349Z,14.53
2023-04-28T17:12:39.408Z,10.67
2023-04-28T17:15:09.501Z,15.17
2023-04-28T17:17:38.130Z,13.30
2023-04-28T17:20:07.682Z,9.57
2023-04-28T17:22:37.676Z,10.23
2023-04-28T17:25:07.095Z,13.70
2023-04-28T17:27:35.615Z,7.20
2023-04-28T17:30:04.622Z,6.73
2023-04-28T17:32:33.437Z,9.10
2023-04-28T17:35:02.143Z,4.70
2023-04-28T17:37:32.602Z,7.40
2023-04-28T17:40:04.037Z,9.03
2023-04-28T17:42:32.755Z,3.53
2023-04-28T17:45:01.517Z,2.80
2023-04-28T17:47:30.038Z,3.27
2023-04-28T17:49:58.758Z,2.20
2023-04-28T17:52:27.817Z,2.87
2023-04-28T17:54:57.717Z,3.17
2023-04-28T17:57:27.624Z,2.83
2023-04-28T17:59:56.109Z,2.63
2023-04-28T18:02:24.730Z,3.93
2023-04-28T18:04:53.667Z,3.03
2023-04-28T18:07:22.570Z,2.67
2023-04-28T18:09:53.002Z,3.10
2023-04-28T18:12:21.553Z,3.57
2023-04-28T18:14:51.938Z,3.80
2023-04-28T18:17:20.876Z,5.50
2023-04-28T18:19:51.631Z,5.43
2023-04-28T18:22:20.215Z,7.40
2023-04-28T18:24:49.882Z,6.57
2023-04-28T18:27:18.606Z,10.27
2023-04-28T18:29:47.152Z,11.27
2023-04-28T18:32:17.417Z,13.50
2023-04-28T18:34:46.215Z,14.40
2023-04-28T18:37:14.833Z,18.80
2023-04-28T18:39:43.364Z,17.67
2023-04-28T18:42:11.999Z,18.57
2023-04-28T18:44:41.276Z,17.23
2023-04-28T18:47:09.811Z,17.60
2023-04-28T18:49:40.239Z,20.40
2023-04-28T18:52:08.875Z,14.80
2023-04-28T18:54:37.676Z,24.30
2023-04-28T18:57:06.585Z,21.23
2023-04-28T18:59:35.236Z,18.10
2023-04-28T19:02:04.433Z,21.37
2023-04-28T19:04:33.262Z,26.03
2023-04-28T19:07:03.297Z,26.07
2023-04-28T19:09:32.508Z,22.70
2023-04-28T19:12:01.044Z,38.07
2023-04-28T19:14:29.614Z,38.17
2023-04-28T19:16:58.224Z,31.10
2023-04-28T19:19:26.791Z,28.43
2023-04-28T19:21:55.613Z,37.17
2023-04-28T19:24:25.525Z,34.10
2023-04-28T19:26:55.403Z,31.43
2023-04-28T19:29:25.758Z,31.33
2023-04-28T19:31:54.514Z,32.43
2023-04-28T19:34:23.085Z,34.03
2023-04-28T19:36:51.633Z,30.43
2023-04-28T19:39:20.189Z,39.60
2023-04-28T19:41:50.640Z,27.73
2023-04-28T19:44:19.185Z,28.07
2023-04-28T19:46:47.883Z,27.97
2023-04-28T19:49:17.699Z,31.90
2023-04-28T19:51:46.457Z,29.50
2023-04-28T19:54:16.663Z,33.53
2023-04-28T19:56:45.471Z,35.80
2023-04-28T19:59:15.829Z,36.00
2023-04-28T20:01:44.828Z,42.30
2023-04-28T20:04:14.320Z,36.87
2023-04-28T20:06:43.528Z,37.50
2023-04-28T20:09:12.129Z,41.07
2023-04-28T20:11:41.309Z,34.07
2023-04-28T20:14:09.815Z,37.87
2023-04-28T20:16:39.774Z,40.37
2023-04-28T20:19:08.345Z,36.07
2023-04-28T20:21:37.294Z,40.50
2023-04-28T20:24:06.754Z,38.20
2023-04-28T20:26:35.503Z,38.43
2023-04-28T20:29:04.899Z,40.00
2023-04-28T20:31:34.449Z,34.93
2023-04-28T20:34:04.973Z,45.60
2023-04-28T20:36:34.101Z,44.83
2023-04-28T20:39:02.645Z,41.87
2023-04-28T20:41:32.142Z,44.17
2023-04-28T20:44:01.226Z,38.83
2023-04-28T20:46:29.862Z,52.20
2023-04-28T20:48:59.499Z,48.30
2023-04-28T20:51:30.234Z,44.80
2023-04-28T20:53:59.050Z,45.60
2023-04-28T20:56:28.163Z,55.67
2023-04-28T20:58:56.738Z,50.93
2023-04-28T21:01:25.503Z,50.93
2023-04-28T21:03:54.206Z,57.67
2023-04-28T21:06:23.172Z,61.53
2023-04-28T21:08:53.106Z,57.10
2023-04-28T21:11:22.078Z,58.60
2023-04-28T21:13:50.626Z,59.03
2023-04-28T21:16:21.717Z,63.07
2023-04-28T21:18:50.760Z,58.60
2023-04-28T21:21:19.418Z,56.10
2023-04-28T21:23:47.920Z,62.87
2023-04-28T21:26:20.665Z,69.50
2023-04-28T21:28:50.261Z,53.67
2023-04-28T21:31:18.934Z,46.03
2023-04-28T21:33:47.503Z,53.37
2023-04-28T21:36:16.063Z,52.53
2023-04-28T21:38:44.669Z,47.73
2023-04-28T21:41:13.370Z,49.43
2023-04-28T21:43:43.332Z,58.80
2023-04-28T21:46:13.057Z,50.40
2023-04-28T21:48:41.773Z,48.37
2023-04-28T21:51:10.277Z,55.57
2023-04-28T21:53:38.860Z,49.70
2023-04-28T21:56:08.042Z,45.67
2023-04-28T21:58:36.876Z,42.57
2023-04-28T22:01:07.687Z,39.73
2023-04-28T22:03:36.651Z,42.63
2023-04-28T22:06:05.677Z,47.87
2023-04-28T22:08:34.341Z,45.40
2023-04-28T22:11:02.981Z,37.47
2023-04-28T22:13:31.553Z,39.30
2023-04-28T22:16:01.683Z,35.27
2023-04-28T22:18:31.942Z,32.83
2023-04-28T22:21:01.106Z,29.20
2023-04-28T22:23:29.611Z,29.10
2023-04-28T22:26:00.153Z,26.30
2023-04-28T22:28:28.901Z,25.80
2023-04-28T22:30:57.634Z,29.63
2023-04-28T22:33:26.178Z,24.90
2023-04-28T22:35:56.078Z,29.03
2023-04-28T22:38:24.606Z,23.13
2023-04-28T22:40:53.576Z,21.37
2023-04-28T22:43:22.066Z,22.67
2023-04-28T22:45:51.152Z,19.83
2023-04-28T22:48:19.756Z,22.57
2023-04-28T22:50:48.229Z,23.97
2023-04-28T22:53:19.575Z,23.97
2023-04-28T22:55:48.666Z,29.83
2023-04-28T22:58:17.238Z,23.53
2023-04-28T23:00:45.739Z,24.47
2023-04-28T23:03:14.362Z,24.27
2023-04-28T23:05:42.922Z,25.67
2023-04-28T23:08:11.375Z,24.43
2023-04-28T23:10:41.252Z,23.07
2023-04-28T23:13:09.856Z,31.87
2023-04-28T23:15:38.357Z,24.00
2023-04-28T23:18:06.900Z,22.33
2023-04-28T23:20:35.729Z,24.13
2023-04-28T23:23:05.073Z,27.70
2023-04-28T23:25:33.616Z,24.33
2023-04-28T23:28:03.495Z,32.43
2023-04-28T23:30:32.204Z,23.43
2023-04-28T23:33:00.822Z,25.13
2023-04-28T23:35:29.406Z,24.13
2023-04-28T23:37:57.940Z,22.27
2023-04-28T23:40:26.799Z,27.10
2023-04-28T23:42:55.444Z,34.20
2023-04-28T23:45:25.433Z,26.27
2023-04-28T23:47:54.371Z,27.37
2023-04-28T23:50:23.815Z,32.17
2023-04-28T23:52:52.376Z,29.90
2023-04-28T23:55:21.119Z,38.73
2023-04-28T23:57:49.644Z,30.33
